sensor_id;sensor_type;location;lat;lon;timestamp;P1;durP1;ratioP1;P2;durP2;ratioP2
59830;SDS011;45711;50.108;13.712;2023-11-21T00:00:55;4.80;;;1.77;;
59830;SDS011;45711;50.108;13.712;2023-11-21T00:03:24;5.68;;;1.50;;
59830;SDS011;45711;50.108;13.712;2023-11-21T00:05:53;4.53;;;1.50;;
59830;SDS011;45711;50.108;13.712;2023-11-21T00:08:21;5.45;;;1.50;;
59830;SDS011;45711;50.108;13.712;2023-11-21T00:10:48;3.95;;;1.80;;
59830;SDS011;45711;50.108;13.712;2023-11-21T00:13:13;4.45;;;1.50;;
59830;SDS011;45711;50.108;13.712;2023-11-21T00:15:39;3.88;;;1.58;;
59830;SDS011;45711;50.108;13.712;2023-11-21T00:18:05;3.40;;;1.70;;
59830;SDS011;45711;50.108;13.712;2023-11-21T00:20:31;3.42;;;1.40;;
59830;SDS011;45711;50.108;13.712;2023-11-21T00:22:57;3.25;;;1.30;;
59830;SDS011;45711;50.108;13.712;2023-11-21T00:25:22;4.80;;;1.80;;
59830;SDS011;45711;50.108;13.712;2023-11-21T00:27:49;4.75;;;1.45;;
59830;SDS011;45711;50.108;13.712;2023-11-21T00:30:15;2.50;;;1.35;;
59830;SDS011;45711;50.108;13.712;2023-11-21T00:32:41;3.85;;;1.48;;
59830;SDS011;45711;50.108;13.712;2023-11-21T00:35:07;3.90;;;1.63;;
59830;SDS011;45711;50.108;13.712;2023-11-21T00:37:32;8.00;;;1.98;;
59830;SDS011;45711;50.108;13.712;2023-11-21T00:39:58;4.35;;;1.88;;
59830;SDS011;45711;50.108;13.712;2023-11-21T00:42:24;2.80;;;1.42;;
59830;SDS011;45711;50.108;13.712;2023-11-21T00:44:51;14.43;;;1.92;;
59830;SDS011;45711;50.108;13.712;2023-11-21T00:47:16;6.05;;;1.50;;
59830;SDS011;45711;50.108;13.712;2023-11-21T00:49:42;4.20;;;1.60;;
59830;SDS011;45711;50.108;13.712;2023-11-21T00:52:08;2.75;;;1.30;;
59830;SDS011;45711;50.108;13.712;2023-11-21T00:54:34;3.60;;;1.40;;
59830;SDS011;45711;50.108;13.712;2023-11-21T00:57:00;14.55;;;7.80;;
59830;SDS011;45711;50.108;13.712;2023-11-21T00:59:25;5.68;;;2.08;;
59830;SDS011;45711;50.108;13.712;2023-11-21T01:01:52;4.50;;;2.00;;
59830;SDS011;45711;50.108;13.712;2023-11-21T01:04:19;3.25;;;1.70;;
59830;SDS011;45711;50.108;13.712;2023-11-21T01:06:45;4.03;;;2.13;;
59830;SDS011;45711;50.108;13.712;2023-11-21T01:09:10;7.35;;;2.25;;
59830;SDS011;45711;50.108;13.712;2023-11-21T01:11:36;6.80;;;1.90;;
59830;SDS011;45711;50.108;13.712;2023-11-21T01:14:03;3.78;;;2.00;;
59830;SDS011;45711;50.108;13.712;2023-11-21T01:16:29;2.85;;;1.63;;
59830;SDS011;45711;50.108;13.712;2023-11-21T01:18:59;2.65;;;1.50;;
59830;SDS011;45711;50.108;13.712;2023-11-21T01:21:24;3.42;;;2.03;;
59830;SDS011;45711;50.108;13.712;2023-11-21T01:23:50;3.05;;;1.77;;
59830;SDS011;45711;50.108;13.712;2023-11-21T01:26:16;6.57;;;1.95;;
59830;SDS011;45711;50.108;13.712;2023-11-21T01:28:41;5.35;;;1.95;;
59830;SDS011;45711;50.108;13.712;2023-11-21T01:31:07;8.05;;;1.85;;
59830;SDS011;45711;50.108;13.712;2023-11-21T01:33:33;4.10;;;1.25;;
59830;SDS011;45711;50.108;13.712;2023-11-21T01:36:00;4.70;;;1.50;;
59830;SDS011;45711;50.108;13.712;2023-11-21T01:38:25;4.20;;;1.50;;
59830;SDS011;45711;50.108;13.712;2023-11-21T01:40:51;2.53;;;1.30;;
59830;SDS011;45711;50.108;13.712;2023-11-21T01:43:16;2.67;;;1.27;;
59830;SDS011;45711;50.108;13.712;2023-11-21T01:45:42;3.80;;;1.48;;
59830;SDS011;45711;50.108;13.712;2023-11-21T01:48:08;2.67;;;1.30;;
59830;SDS011;45711;50.108;13.712;2023-11-21T01:50:34;3.10;;;1.40;;
59830;SDS011;45711;50.108;13.712;2023-11-21T01:53:01;3.20;;;1.73;;
59830;SDS011;45711;50.108;13.712;2023-11-21T01:55:27;4.65;;;1.73;;
59830;SDS011;45711;50.108;13.712;2023-11-21T01:57:55;6.05;;;1.58;;
59830;SDS011;45711;50.108;13.712;2023-11-21T02:00:22;4.70;;;1.70;;
59830;SDS011;45711;50.108;13.712;2023-11-21T02:02:48;3.75;;;1.60;;
59830;SDS011;45711;50.108;13.712;2023-11-21T02:05:14;6.35;;;1.40;;
59830;SDS011;45711;50.108;13.712;2023-11-21T02:07:43;6.00;;;1.50;;
59830;SDS011;45711;50.108;13.712;2023-11-21T02:10:11;3.65;;;1.70;;
59830;SDS011;45711;50.108;13.712;2023-11-21T02:12:40;3.53;;;1.48;;
59830;SDS011;45711;50.108;13.712;2023-11-21T02:15:07;4.82;;;1.65;;
59830;SDS011;45711;50.108;13.712;2023-11-21T02:17:40;5.57;;;1.48;;
59830;SDS011;45711;50.108;13.712;2023-11-21T02:20:06;2.95;;;1.60;;
59830;SDS011;45711;50.108;13.712;2023-11-21T02:22:32;2.45;;;1.40;;
59830;SDS011;45711;50.108;13.712;2023-11-21T02:25:06;3.55;;;1.63;;
59830;SDS011;45711;50.108;13.712;2023-11-21T02:27:34;7.25;;;3.05;;
59830;SDS011;45711;50.108;13.712;2023-11-21T02:30:00;6.18;;;1.52;;
59830;SDS011;45711;50.108;13.712;2023-11-21T02:32:26;2.10;;;1.08;;
59830;SDS011;45711;50.108;13.712;2023-11-21T02:34:56;3.10;;;1.55;;
59830;SDS011;45711;50.108;13.712;2023-11-21T02:37:26;3.30;;;1.40;;
59830;SDS011;45711;50.108;13.712;2023-11-21T02:39:51;2.15;;;1.42;;
59830;SDS011;45711;50.108;13.712;2023-11-21T02:42:22;3.83;;;1.80;;
59830;SDS011;45711;50.108;13.712;2023-11-21T02:44:48;6.25;;;1.55;;
59830;SDS011;45711;50.108;13.712;2023-11-21T02:47:19;5.03;;;1.52;;
59830;SDS011;45711;50.108;13.712;2023-11-21T02:49:44;4.03;;;1.30;;
59830;SDS011;45711;50.108;13.712;2023-11-21T02:52:10;3.45;;;1.65;;
59830;SDS011;45711;50.108;13.712;2023-11-21T02:54:39;3.70;;;1.58;;
59830;SDS011;45711;50.108;13.712;2023-11-21T02:57:07;5.05;;;1.58;;
59830;SDS011;45711;50.108;13.712;2023-11-21T02:59:35;3.10;;;1.20;;
59830;SDS011;45711;50.108;13.712;2023-11-21T03:02:02;1.88;;;1.00;;
59830;SDS011;45711;50.108;13.712;2023-11-21T03:04:33;6.65;;;1.20;;
59830;SDS011;45711;50.108;13.712;2023-11-21T03:07:00;5.45;;;1.40;;
59830;SDS011;45711;50.108;13.712;2023-11-21T03:09:25;4.53;;;1.42;;
59830;SDS011;45711;50.108;13.712;2023-11-21T03:11:54;3.63;;;1.38;;
59830;SDS011;45711;50.108;13.712;2023-11-21T03:14:20;2.05;;;1.10;;
59830;SDS011;45711;50.108;13.712;2023-11-21T03:16:47;2.03;;;1.00;;
59830;SDS011;45711;50.108;13.712;2023-11-21T03:19:15;1.73;;;1.17;;
59830;SDS011;45711;50.108;13.712;2023-11-21T03:21:45;2.85;;;1.33;;
59830;SDS011;45711;50.108;13.712;2023-11-21T03:24:14;2.17;;;1.25;;
59830;SDS011;45711;50.108;13.712;2023-11-21T03:26:44;3.70;;;1.20;;
59830;SDS011;45711;50.108;13.712;2023-11-21T03:29:09;2.15;;;1.20;;
59830;SDS011;45711;50.108;13.712;2023-11-21T03:31:35;3.63;;;1.23;;
59830;SDS011;45711;50.108;13.712;2023-11-21T03:34:02;4.55;;;1.42;;
59830;SDS011;45711;50.108;13.712;2023-11-21T03:36:28;1.85;;;1.38;;
59830;SDS011;45711;50.108;13.712;2023-11-21T03:38:54;3.22;;;1.10;;
59830;SDS011;45711;50.108;13.712;2023-11-21T03:41:20;2.80;;;1.20;;
59830;SDS011;45711;50.108;13.712;2023-11-21T03:43:46;2.88;;;1.13;;
59830;SDS011;45711;50.108;13.712;2023-11-21T03:46:11;2.78;;;1.00;;
59830;SDS011;45711;50.108;13.712;2023-11-21T03:48:37;4.05;;;1.80;;
59830;SDS011;45711;50.108;13.712;2023-11-21T03:51:04;4.00;;;1.35;;
59830;SDS011;45711;50.108;13.712;2023-11-21T03:53:30;3.00;;;1.48;;
59830;SDS011;45711;50.108;13.712;2023-11-21T03:55:57;2.95;;;1.27;;
59830;SDS011;45711;50.108;13.712;2023-11-21T03:58:23;2.25;;;1.42;;
59830;SDS011;45711;50.108;13.712;2023-11-21T04:00:48;2.13;;;1.13;;
59830;SDS011;45711;50.108;13.712;2023-11-21T04:03:14;4.13;;;0.95;;
59830;SDS011;45711;50.108;13.712;2023-11-21T04:05:40;2.08;;;1.02;;
59830;SDS011;45711;50.108;13.712;2023-11-21T04:08:07;2.80;;;0.82;;
59830;SDS011;45711;50.108;13.712;2023-11-21T04:10:33;2.30;;;0.90;;
59830;SDS011;45711;50.108;13.712;2023-11-21T04:12:59;3.72;;;1.40;;
59830;SDS011;45711;50.108;13.712;2023-11-21T04:15:25;5.00;;;1.23;;
59830;SDS011;45711;50.108;13.712;2023-11-21T04:17:51;1.85;;;0.95;;
59830;SDS011;45711;50.108;13.712;2023-11-21T04:20:17;4.72;;;0.98;;
59830;SDS011;45711;50.108;13.712;2023-11-21T04:22:43;2.85;;;0.88;;
59830;SDS011;45711;50.108;13.712;2023-11-21T04:25:11;3.90;;;1.17;;
59830;SDS011;45711;50.108;13.712;2023-11-21T04:27:37;3.47;;;1.05;;
59830;SDS011;45711;50.108;13.712;2023-11-21T04:30:04;2.03;;;0.90;;
59830;SDS011;45711;50.108;13.712;2023-11-21T04:32:31;4.88;;;1.20;;
59830;SDS011;45711;50.108;13.712;2023-11-21T04:34:56;1.77;;;0.85;;
59830;SDS011;45711;50.108;13.712;2023-11-21T04:37:22;3.05;;;1.25;;
59830;SDS011;45711;50.108;13.712;2023-11-21T04:39:49;2.65;;;1.05;;
59830;SDS011;45711;50.108;13.712;2023-11-21T04:42:16;2.55;;;1.13;;
59830;SDS011;45711;50.108;13.712;2023-11-21T04:44:42;3.28;;;1.10;;
59830;SDS011;45711;50.108;13.712;2023-11-21T04:47:09;2.65;;;1.40;;
59830;SDS011;45711;50.108;13.712;2023-11-21T04:49:34;5.85;;;1.95;;
59830;SDS011;45711;50.108;13.712;2023-11-21T04:52:00;3.85;;;1.83;;
59830;SDS011;45711;50.108;13.712;2023-11-21T04:54:26;6.43;;;2.78;;
59830;SDS011;45711;50.108;13.712;2023-11-21T04:56:52;4.43;;;2.88;;
59830;SDS011;45711;50.108;13.712;2023-11-21T04:59:19;5.82;;;2.17;;
59830;SDS011;45711;50.108;13.712;2023-11-21T05:01:45;6.72;;;2.90;;
59830;SDS011;45711;50.108;13.712;2023-11-21T05:04:13;10.88;;;4.60;;
59830;SDS011;45711;50.108;13.712;2023-11-21T05:06:39;9.60;;;4.00;;
59830;SDS011;45711;50.108;13.712;2023-11-21T05:09:05;7.32;;;3.10;;
59830;SDS011;45711;50.108;13.712;2023-11-21T05:11:31;7.85;;;3.08;;
59830;SDS011;45711;50.108;13.712;2023-11-21T05:14:02;6.60;;;2.63;;
59830;SDS011;45711;50.108;13.712;2023-11-21T05:16:30;7.40;;;2.70;;
59830;SDS011;45711;50.108;13.712;2023-11-21T05:18:56;9.50;;;2.08;;
59830;SDS011;45711;50.108;13.712;2023-11-21T05:21:25;5.60;;;1.70;;
59830;SDS011;45711;50.108;13.712;2023-11-21T05:23:51;4.88;;;1.92;;
59830;SDS011;45711;50.108;13.712;2023-11-21T05:26:17;4.18;;;2.10;;
59830;SDS011;45711;50.108;13.712;2023-11-21T05:28:42;4.22;;;2.17;;
59830;SDS011;45711;50.108;13.712;2023-11-21T05:31:08;3.65;;;2.25;;
59830;SDS011;45711;50.108;13.712;2023-11-21T05:33:35;12.82;;;1.88;;
59830;SDS011;45711;50.108;13.712;2023-11-21T05:36:00;3.90;;;1.40;;
59830;SDS011;45711;50.108;13.712;2023-11-21T05:38:26;6.07;;;1.48;;
59830;SDS011;45711;50.108;13.712;2023-11-21T05:40:52;8.65;;;2.00;;
59830;SDS011;45711;50.108;13.712;2023-11-21T05:43:17;3.35;;;1.52;;
59830;SDS011;45711;50.108;13.712;2023-11-21T05:45:43;4.25;;;1.63;;
59830;SDS011;45711;50.108;13.712;2023-11-21T05:48:13;3.80;;;1.40;;
59830;SDS011;45711;50.108;13.712;2023-11-21T05:50:40;3.28;;;1.63;;
59830;SDS011;45711;50.108;13.712;2023-11-21T05:53:06;5.03;;;2.33;;
59830;SDS011;45711;50.108;13.712;2023-11-21T05:55:32;3.08;;;1.67;;
59830;SDS011;45711;50.108;13.712;2023-11-21T05:57:58;3.58;;;1.40;;
59830;SDS011;45711;50.108;13.712;2023-11-21T06:00:23;2.55;;;0.90;;
59830;SDS011;45711;50.108;13.712;2023-11-21T06:02:51;2.40;;;1.20;;
59830;SDS011;45711;50.108;13.712;2023-11-21T06:05:21;7.40;;;1.33;;
59830;SDS011;45711;50.108;13.712;2023-11-21T06:07:49;2.40;;;1.25;;
59830;SDS011;45711;50.108;13.712;2023-11-21T06:10:15;3.95;;;1.50;;
59830;SDS011;45711;50.108;13.712;2023-11-21T06:12:43;2.60;;;1.25;;
59830;SDS011;45711;50.108;13.712;2023-11-21T06:15:09;4.88;;;1.23;;
59830;SDS011;45711;50.108;13.712;2023-11-21T06:17:38;2.15;;;1.40;;
59830;SDS011;45711;50.108;13.712;2023-11-21T06:20:04;2.58;;;1.30;;
59830;SDS011;45711;50.108;13.712;2023-11-21T06:22:34;2.22;;;1.00;;
59830;SDS011;45711;50.108;13.712;2023-11-21T06:25:01;3.42;;;0.93;;
59830;SDS011;45711;50.108;13.712;2023-11-21T06:27:28;2.63;;;1.10;;
59830;SDS011;45711;50.108;13.712;2023-11-21T06:29:54;7.75;;;1.13;;
59830;SDS011;45711;50.108;13.712;2023-11-21T06:32:20;4.63;;;1.38;;
59830;SDS011;45711;50.108;13.712;2023-11-21T06:34:47;3.85;;;1.05;;
59830;SDS011;45711;50.108;13.712;2023-11-21T06:37:14;7.22;;;1.92;;
59830;SDS011;45711;50.108;13.712;2023-11-21T06:39:40;9.60;;;1.60;;
59830;SDS011;45711;50.108;13.712;2023-11-21T06:42:09;5.07;;;1.70;;
59830;SDS011;45711;50.108;13.712;2023-11-21T06:44:35;4.63;;;1.58;;
59830;SDS011;45711;50.108;13.712;2023-11-21T06:47:02;5.50;;;1.50;;
59830;SDS011;45711;50.108;13.712;2023-11-21T06:49:28;4.63;;;2.13;;
59830;SDS011;45711;50.108;13.712;2023-11-21T06:51:54;4.18;;;2.10;;
59830;SDS011;45711;50.108;13.712;2023-11-21T06:54:20;5.57;;;1.67;;
59830;SDS011;45711;50.108;13.712;2023-11-21T06:56:46;8.20;;;2.63;;
59830;SDS011;45711;50.108;13.712;2023-11-21T06:59:13;4.53;;;2.03;;
59830;SDS011;45711;50.108;13.712;2023-11-21T07:01:39;4.65;;;1.83;;
59830;SDS011;45711;50.108;13.712;2023-11-21T07:04:06;7.80;;;2.20;;
59830;SDS011;45711;50.108;13.712;2023-11-21T07:06:35;10.10;;;3.13;;
59830;SDS011;45711;50.108;13.712;2023-11-21T07:09:00;15.40;;;3.85;;
59830;SDS011;45711;50.108;13.712;2023-11-21T07:11:28;8.82;;;3.33;;
59830;SDS011;45711;50.108;13.712;2023-11-21T07:13:54;9.65;;;3.90;;
59830;SDS011;45711;50.108;13.712;2023-11-21T07:16:24;8.23;;;2.85;;
59830;SDS011;45711;50.108;13.712;2023-11-21T07:18:50;7.38;;;2.80;;
59830;SDS011;45711;50.108;13.712;2023-11-21T07:21:20;8.60;;;2.75;;
59830;SDS011;45711;50.108;13.712;2023-11-21T07:23:46;8.80;;;2.80;;
59830;SDS011;45711;50.108;13.712;2023-11-21T07:26:11;7.43;;;2.67;;
59830;SDS011;45711;50.108;13.712;2023-11-21T07:28:38;9.18;;;2.45;;
59830;SDS011;45711;50.108;13.712;2023-11-21T07:31:04;6.90;;;2.00;;
59830;SDS011;45711;50.108;13.712;2023-11-21T07:33:32;3.28;;;1.50;;
59830;SDS011;45711;50.108;13.712;2023-11-21T07:35:57;1.95;;;1.25;;
59830;SDS011;45711;50.108;13.712;2023-11-21T07:38:24;4.03;;;1.70;;
59830;SDS011;45711;50.108;13.712;2023-11-21T07:40:50;4.53;;;1.80;;
59830;SDS011;45711;50.108;13.712;2023-11-21T07:43:16;3.08;;;2.05;;
59830;SDS011;45711;50.108;13.712;2023-11-21T07:45:41;6.85;;;2.97;;
59830;SDS011;45711;50.108;13.712;2023-11-21T07:48:07;7.30;;;2.83;;
59830;SDS011;45711;50.108;13.712;2023-11-21T07:50:34;4.18;;;2.40;;
59830;SDS011;45711;50.108;13.712;2023-11-21T07:53:00;9.05;;;3.10;;
59830;SDS011;45711;50.108;13.712;2023-11-21T07:55:25;7.40;;;3.50;;
59830;SDS011;45711;50.108;13.712;2023-11-21T07:57:51;7.05;;;3.47;;
59830;SDS011;45711;50.108;13.712;2023-11-21T08:00:26;9.18;;;3.75;;
59830;SDS011;45711;50.108;13.712;2023-11-21T08:02:58;9.85;;;4.53;;
59830;SDS011;45711;50.108;13.712;2023-11-21T08:05:25;8.70;;;5.30;;
59830;SDS011;45711;50.108;13.712;2023-11-21T08:07:52;9.38;;;4.18;;
59830;SDS011;45711;50.108;13.712;2023-11-21T08:10:18;7.72;;;4.78;;
59830;SDS011;45711;50.108;13.712;2023-11-21T08:12:46;11.38;;;5.57;;
59830;SDS011;45711;50.108;13.712;2023-11-21T08:15:13;10.43;;;6.10;;
59830;SDS011;45711;50.108;13.712;2023-11-21T08:17:39;10.63;;;5.47;;
59830;SDS011;45711;50.108;13.712;2023-11-21T08:20:05;7.70;;;4.78;;
59830;SDS011;45711;50.108;13.712;2023-11-21T08:22:33;11.45;;;4.18;;
59830;SDS011;45711;50.108;13.712;2023-11-21T08:25:00;5.20;;;2.83;;
59830;SDS011;45711;50.108;13.712;2023-11-21T08:27:28;6.03;;;3.08;;
59830;SDS011;45711;50.108;13.712;2023-11-21T08:29:54;7.93;;;3.65;;
59830;SDS011;45711;50.108;13.712;2023-11-21T08:32:21;6.13;;;3.40;;
59830;SDS011;45711;50.108;13.712;2023-11-21T08:34:47;8.00;;;3.42;;
59830;SDS011;45711;50.108;13.712;2023-11-21T08:37:15;5.35;;;2.97;;
59830;SDS011;45711;50.108;13.712;2023-11-21T08:39:41;5.65;;;2.53;;
59830;SDS011;45711;50.108;13.712;2023-11-21T08:42:08;6.05;;;3.20;;
59830;SDS011;45711;50.108;13.712;2023-11-21T08:44:34;3.60;;;2.55;;
59830;SDS011;45711;50.108;13.712;2023-11-21T08:47:00;4.35;;;2.28;;
59830;SDS011;45711;50.108;13.712;2023-11-21T08:49:25;5.88;;;2.85;;
59830;SDS011;45711;50.108;13.712;2023-11-21T08:51:52;4.38;;;2.83;;
59830;SDS011;45711;50.108;13.712;2023-11-21T08:54:20;6.20;;;2.65;;
59830;SDS011;45711;50.108;13.712;2023-11-21T08:56:46;10.77;;;3.03;;
59830;SDS011;45711;50.108;13.712;2023-11-21T08:59:13;7.30;;;3.15;;
59830;SDS011;45711;50.108;13.712;2023-11-21T09:01:41;8.02;;;3.35;;
59830;SDS011;45711;50.108;13.712;2023-11-21T09:04:07;5.85;;;3.10;;
59830;SDS011;45711;50.108;13.712;2023-11-21T09:06:35;5.53;;;3.03;;
59830;SDS011;45711;50.108;13.712;2023-11-21T09:09:00;6.85;;;3.42;;
59830;SDS011;45711;50.108;13.712;2023-11-21T09:11:27;16.65;;;2.85;;
59830;SDS011;45711;50.108;13.712;2023-11-21T09:13:58;4.28;;;2.75;;
59830;SDS011;45711;50.108;13.712;2023-11-21T09:16:25;6.05;;;2.88;;
59830;SDS011;45711;50.108;13.712;2023-11-21T09:18:51;6.32;;;2.88;;
59830;SDS011;45711;50.108;13.712;2023-11-21T09:21:18;7.88;;;3.20;;
59830;SDS011;45711;50.108;13.712;2023-11-21T09:23:44;5.65;;;2.75;;
59830;SDS011;45711;50.108;13.712;2023-11-21T09:26:09;4.50;;;2.63;;
59830;SDS011;45711;50.108;13.712;2023-11-21T09:28:35;4.55;;;2.70;;
59830;SDS011;45711;50.108;13.712;2023-11-21T09:31:03;6.03;;;2.88;;
59830;SDS011;45711;50.108;13.712;2023-11-21T09:33:35;8.82;;;2.78;;
59830;SDS011;45711;50.108;13.712;2023-11-21T09:36:00;5.22;;;2.72;;
59830;SDS011;45711;50.108;13.712;2023-11-21T09:38:26;4.55;;;2.90;;
59830;SDS011;45711;50.108;13.712;2023-11-21T09:40:54;5.57;;;2.97;;
59830;SDS011;45711;50.108;13.712;2023-11-21T09:43:20;7.45;;;2.90;;
59830;SDS011;45711;50.108;13.712;2023-11-21T09:45:47;3.72;;;2.30;;
59830;SDS011;45711;50.108;13.712;2023-11-21T09:48:18;5.38;;;2.53;;
59830;SDS011;45711;50.108;13.712;2023-11-21T09:50:46;6.88;;;2.90;;
59830;SDS011;45711;50.108;13.712;2023-11-21T09:53:13;3.72;;;2.10;;
59830;SDS011;45711;50.108;13.712;2023-11-21T09:55:46;6.70;;;2.70;;
59830;SDS011;45711;50.108;13.712;2023-11-21T09:58:13;6.78;;;2.35;;
59830;SDS011;45711;50.108;13.712;2023-11-21T10:00:40;3.83;;;2.05;;
59830;SDS011;45711;50.108;13.712;2023-11-21T10:03:06;3.85;;;2.22;;
59830;SDS011;45711;50.108;13.712;2023-11-21T10:05:32;4.88;;;2.45;;
59830;SDS011;45711;50.108;13.712;2023-11-21T10:08:01;4.10;;;2.25;;
59830;SDS011;45711;50.108;13.712;2023-11-21T10:10:29;5.20;;;2.40;;
59830;SDS011;45711;50.108;13.712;2023-11-21T10:12:57;7.57;;;2.60;;
59830;SDS011;45711;50.108;13.712;2023-11-21T10:15:28;5.53;;;2.40;;
59830;SDS011;45711;50.108;13.712;2023-11-21T10:17:56;4.40;;;2.47;;
59830;SDS011;45711;50.108;13.712;2023-11-21T10:20:21;4.05;;;2.50;;
59830;SDS011;45711;50.108;13.712;2023-11-21T10:22:59;6.45;;;2.60;;
59830;SDS011;45711;50.108;13.712;2023-11-21T10:25:29;5.63;;;2.30;;
59830;SDS011;45711;50.108;13.712;2023-11-21T10:27:56;5.97;;;2.05;;
59830;SDS011;45711;50.108;13.712;2023-11-21T10:30:29;2.25;;;1.20;;
59830;SDS011;45711;50.108;13.712;2023-11-21T10:32:58;3.25;;;1.63;;
59830;SDS011;45711;50.108;13.712;2023-11-21T10:35:25;4.30;;;1.85;;
59830;SDS011;45711;50.108;13.712;2023-11-21T10:38:03;3.30;;;1.40;;
59830;SDS011;45711;50.108;13.712;2023-11-21T10:40:30;4.93;;;1.33;;
59830;SDS011;45711;50.108;13.712;2023-11-21T10:42:56;2.90;;;1.40;;
59830;SDS011;45711;50.108;13.712;2023-11-21T10:45:31;3.13;;;1.80;;
59830;SDS011;45711;50.108;13.712;2023-11-21T10:47:57;3.25;;;1.27;;
59830;SDS011;45711;50.108;13.712;2023-11-21T10:50:23;2.78;;;1.40;;
59830;SDS011;45711;50.108;13.712;2023-11-21T10:52:52;5.90;;;1.80;;
59830;SDS011;45711;50.108;13.712;2023-11-21T10:55:18;4.53;;;1.58;;
59830;SDS011;45711;50.108;13.712;2023-11-21T10:57:48;2.97;;;1.48;;
59830;SDS011;45711;50.108;13.712;2023-11-21T11:00:17;2.13;;;1.10;;
59830;SDS011;45711;50.108;13.712;2023-11-21T11:02:46;2.80;;;1.50;;
59830;SDS011;45711;50.108;13.712;2023-11-21T11:05:14;4.03;;;1.35;;
59830;SDS011;45711;50.108;13.712;2023-11-21T11:07:44;5.55;;;1.10;;
59830;SDS011;45711;50.108;13.712;2023-11-21T11:10:13;3.50;;;1.83;;
59830;SDS011;45711;50.108;13.712;2023-11-21T11:12:39;8.02;;;1.33;;
59830;SDS011;45711;50.108;13.712;2023-11-21T11:15:07;2.90;;;1.38;;
59830;SDS011;45711;50.108;13.712;2023-11-21T11:17:34;2.95;;;1.20;;
59830;SDS011;45711;50.108;13.712;2023-11-21T11:20:03;3.00;;;1.40;;
59830;SDS011;45711;50.108;13.712;2023-11-21T11:22:34;1.92;;;1.20;;
59830;SDS011;45711;50.108;13.712;2023-11-21T11:25:14;6.68;;;1.60;;
59830;SDS011;45711;50.108;13.712;2023-11-21T11:30:23;2.97;;;1.33;;
59830;SDS011;45711;50.108;13.712;2023-11-21T11:33:04;6.90;;;1.27;;
59830;SDS011;45711;50.108;13.712;2023-11-21T11:35:38;4.25;;;1.73;;
59830;SDS011;45711;50.108;13.712;2023-11-21T11:38:16;2.90;;;1.38;;
59830;SDS011;45711;50.108;13.712;2023-11-21T11:40:44;1.63;;;1.02;;
59830;SDS011;45711;50.108;13.712;2023-11-21T11:43:10;2.30;;;1.23;;
59830;SDS011;45711;50.108;13.712;2023-11-21T11:45:38;3.45;;;1.77;;
59830;SDS011;45711;50.108;13.712;2023-11-21T11:48:07;4.07;;;1.20;;
59830;SDS011;45711;50.108;13.712;2023-11-21T11:50:39;4.70;;;1.33;;
59830;SDS011;45711;50.108;13.712;2023-11-21T11:53:26;3.10;;;1.13;;
59830;SDS011;45711;50.108;13.712;2023-11-21T11:55:58;1.65;;;1.23;;
59830;SDS011;45711;50.108;13.712;2023-11-21T11:58:54;2.17;;;1.15;;
59830;SDS011;45711;50.108;13.712;2023-11-21T12:01:23;2.58;;;1.27;;
59830;SDS011;45711;50.108;13.712;2023-11-21T12:06:50;1.85;;;1.23;;
59830;SDS011;45711;50.108;13.712;2023-11-21T12:09:18;4.35;;;1.40;;
59830;SDS011;45711;50.108;13.712;2023-11-21T12:11:45;2.95;;;1.30;;
59830;SDS011;45711;50.108;13.712;2023-11-21T12:14:14;4.40;;;1.38;;
59830;SDS011;45711;50.108;13.712;2023-11-21T12:16:44;4.25;;;1.50;;
59830;SDS011;45711;50.108;13.712;2023-11-21T12:19:10;3.78;;;1.48;;
59830;SDS011;45711;50.108;13.712;2023-11-21T12:21:37;1.88;;;1.27;;
59830;SDS011;45711;50.108;13.712;2023-11-21T12:24:02;2.08;;;1.27;;
59830;SDS011;45711;50.108;13.712;2023-11-21T12:26:29;3.60;;;1.40;;
59830;SDS011;45711;50.108;13.712;2023-11-21T12:28:55;2.78;;;1.17;;
59830;SDS011;45711;50.108;13.712;2023-11-21T12:31:23;2.78;;;1.17;;
59830;SDS011;45711;50.108;13.712;2023-11-21T12:33:52;5.45;;;1.77;;
59830;SDS011;45711;50.108;13.712;2023-11-21T12:36:21;6.10;;;1.98;;
59830;SDS011;45711;50.108;13.712;2023-11-21T12:38:47;5.50;;;1.75;;
59830;SDS011;45711;50.108;13.712;2023-11-21T12:41:15;4.22;;;2.28;;
59830;SDS011;45711;50.108;13.712;2023-11-21T12:43:42;2.40;;;1.45;;
59830;SDS011;45711;50.108;13.712;2023-11-21T12:46:10;4.30;;;2.50;;
59830;SDS011;45711;50.108;13.712;2023-11-21T12:48:36;7.32;;;2.70;;
59830;SDS011;45711;50.108;13.712;2023-11-21T12:51:06;3.80;;;1.88;;
59830;SDS011;45711;50.108;13.712;2023-11-21T12:53:31;4.32;;;2.60;;
59830;SDS011;45711;50.108;13.712;2023-11-21T12:56:02;7.47;;;2.10;;
59830;SDS011;45711;50.108;13.712;2023-11-21T12:58:28;4.50;;;2.42;;
59830;SDS011;45711;50.108;13.712;2023-11-21T13:00:56;5.10;;;2.60;;
59830;SDS011;45711;50.108;13.712;2023-11-21T13:03:24;5.45;;;2.55;;
59830;SDS011;45711;50.108;13.712;2023-11-21T13:05:51;4.72;;;3.20;;
59830;SDS011;45711;50.108;13.712;2023-11-21T13:08:24;3.85;;;2.78;;
59830;SDS011;45711;50.108;13.712;2023-11-21T13:10:50;4.93;;;2.58;;
59830;SDS011;45711;50.108;13.712;2023-11-21T13:13:20;8.07;;;3.13;;
59830;SDS011;45711;50.108;13.712;2023-11-21T13:15:51;6.20;;;2.95;;
59830;SDS011;45711;50.108;13.712;2023-11-21T13:18:28;8.88;;;2.05;;
59830;SDS011;45711;50.108;13.712;2023-11-21T13:20:59;6.00;;;2.83;;
59830;SDS011;45711;50.108;13.712;2023-11-21T13:23:34;6.85;;;3.17;;
59830;SDS011;45711;50.108;13.712;2023-11-21T13:28:31;11.27;;;3.38;;
59830;SDS011;45711;50.108;13.712;2023-11-21T13:31:02;10.07;;;4.00;;
59830;SDS011;45711;50.108;13.712;2023-11-21T13:33:35;5.00;;;2.85;;
59830;SDS011;45711;50.108;13.712;2023-11-21T13:36:03;6.47;;;3.88;;
59830;SDS011;45711;50.108;13.712;2023-11-21T13:38:34;8.82;;;4.18;;
59830;SDS011;45711;50.108;13.712;2023-11-21T13:43:39;3.50;;;2.50;;
59830;SDS011;45711;50.108;13.712;2023-11-21T13:46:09;2.63;;;1.60;;
59830;SDS011;45711;50.108;13.712;2023-11-21T13:48:48;2.85;;;1.90;;
59830;SDS011;45711;50.108;13.712;2023-11-21T13:51:26;3.45;;;1.60;;
59830;SDS011;45711;50.108;13.712;2023-11-21T13:54:04;5.68;;;2.70;;
59830;SDS011;45711;50.108;13.712;2023-11-21T13:56:34;8.90;;;4.68;;
59830;SDS011;45711;50.108;13.712;2023-11-21T13:59:00;11.88;;;5.75;;
59830;SDS011;45711;50.108;13.712;2023-11-21T14:01:34;22.50;;;8.52;;
59830;SDS011;45711;50.108;13.712;2023-11-21T14:04:18;11.65;;;4.60;;
59830;SDS011;45711;50.108;13.712;2023-11-21T14:06:45;8.95;;;5.13;;
59830;SDS011;45711;50.108;13.712;2023-11-21T14:09:17;6.72;;;3.38;;
59830;SDS011;45711;50.108;13.712;2023-11-21T14:12:00;8.20;;;3.40;;
59830;SDS011;45711;50.108;13.712;2023-11-21T14:14:31;5.05;;;2.67;;
59830;SDS011;45711;50.108;13.712;2023-11-21T14:17:04;4.70;;;2.10;;
59830;SDS011;45711;50.108;13.712;2023-11-21T14:19:32;4.60;;;2.33;;
59830;SDS011;45711;50.108;13.712;2023-11-21T14:22:00;5.45;;;2.78;;
59830;SDS011;45711;50.108;13.712;2023-11-21T14:24:27;4.80;;;3.00;;
59830;SDS011;45711;50.108;13.712;2023-11-21T14:26:54;7.18;;;3.70;;
59830;SDS011;45711;50.108;13.712;2023-11-21T14:29:20;4.57;;;2.35;;
59830;SDS011;45711;50.108;13.712;2023-11-21T14:31:48;3.40;;;1.90;;
59830;SDS011;45711;50.108;13.712;2023-11-21T14:34:15;5.70;;;2.10;;
59830;SDS011;45711;50.108;13.712;2023-11-21T14:36:42;4.60;;;2.20;;
59830;SDS011;45711;50.108;13.712;2023-11-21T14:39:08;4.70;;;2.00;;
59830;SDS011;45711;50.108;13.712;2023-11-21T14:41:47;4.68;;;2.13;;
59830;SDS011;45711;50.108;13.712;2023-11-21T14:44:12;3.95;;;2.15;;
59830;SDS011;45711;50.108;13.712;2023-11-21T14:46:40;4.88;;;2.88;;